Time;durP1;ratioP1;P1;durP2;ratioP2;P2;SDS_P1;SDS_P2;PMS_P1;PMS_P2;Temp;Humidity;BMP_temperature;BMP_pressure;BME280_temperature;BME280_humidity;BME280_pressure;Samples;Min_cycle;Max_cycle;Signal;HPM_P1;HPM_P2
2021/11/23 00:00:49;;;;;;;0.90;0.90;;;;;;;0.81;87.13;99805.19;4976674;28;20113;-73
2021/11/23 00:03:18;;;;;;;3.40;1.02;;;;;;;0.91;86.42;99798.75;4980112;28;20054;-73
2021/11/23 00:05:48;;;;;;;1.10;1.10;;;;;;;0.90;86.54;99802.13;4974002;28;20026;-73
2021/11/23 00:08:15;;;;;;;1.63;1.52;;;;;;;0.85;86.63;99806.19;4973474;28;20381;-73
2021/11/23 00:10:41;;;;;;;1.63;1.60;;;;;;;0.91;86.30;99803.84;4973193;28;20488;-73
2021/11/23 00:13:08;;;;;;;0.90;0.90;;;;;;;0.98;85.51;99808.38;4973437;28;20463;-73
2021/11/23 00:15:35;;;;;;;1.33;1.27;;;;;;;0.93;85.84;99812.44;4973378;28;20027;-73
2021/11/23 00:18:02;;;;;;;0.90;0.90;;;;;;;0.87;85.97;99817.31;4973430;28;20027;-73
2021/11/23 00:20:27;;;;;;;0.90;0.90;;;;;;;0.80;86.59;99815.34;4973066;28;20073;-73
2021/11/23 00:22:54;;;;;;;1.02;1.02;;;;;;;0.72;86.78;99813.38;4973287;28;20492;-73
2021/11/23 00:25:20;;;;;;;1.30;1.30;;;;;;;0.70;86.90;99815.00;4973348;28;20396;-73
2021/11/23 00:27:45;;;;;;;0.88;0.88;;;;;;;0.69;86.84;99818.38;4978463;28;20058;-73
2021/11/23 00:30:11;;;;;;;0.70;0.70;;;;;;;0.68;86.81;99815.78;4976659;28;20101;-73
2021/11/23 00:32:36;;;;;;;0.80;0.80;;;;;;;0.65;87.21;99811.41;4982661;28;20452;-73
2021/11/23 00:35:01;;;;;;;1.45;1.35;;;;;;;0.59;87.44;99815.41;4992196;28;20033;-73
2021/11/23 00:37:27;;;;;;;0.80;0.80;;;;;;;0.59;87.40;99810.31;4992684;28;20053;-73
2021/11/23 00:39:52;;;;;;;0.90;0.90;;;;;;;0.58;87.67;99817.09;4992431;28;20514;-74
2021/11/23 00:42:18;;;;;;;0.80;0.80;;;;;;;0.55;88.01;99818.66;4992536;28;20034;-73
2021/11/23 00:44:43;;;;;;;1.60;1.50;;;;;;;0.44;88.62;99825.88;4992621;28;20029;-73
2021/11/23 00:47:08;;;;;;;1.35;0.98;;;;;;;0.38;89.46;99831.59;4992510;28;20128;-73
2021/11/23 00:49:33;;;;;;;1.15;1.15;;;;;;;0.34;89.89;99828.84;4992865;28;20467;-73
2021/11/23 00:51:59;;;;;;;1.05;1.05;;;;;;;0.27;90.12;99837.09;4992432;28;20031;-73
2021/11/23 00:54:24;;;;;;;1.10;1.10;;;;;;;0.22;90.66;99840.31;4992425;28;20026;-73
2021/11/23 00:56:49;;;;;;;1.75;1.75;;;;;;;0.21;90.76;99833.47;4992591;28;20037;-73
2021/11/23 00:59:15;;;;;;;1.23;1.23;;;;;;;0.22;91.18;99834.34;4987792;28;20042;-72
2021/11/23 05:17:17;;;;;;;1.65;1.55;;;;;;;-2.06;100.00;99902.91;5136856;23;20114;-69
2021/11/23 05:19:42;;;;;;;1.08;1.08;;;;;;;-2.22;99.83;99901.25;4973800;28;20042;-70
2021/11/23 05:22:07;;;;;;;0.90;0.90;;;;;;;-2.24;99.98;99907.03;4976610;28;20148;-70
2021/11/23 05:24:33;;;;;;;2.17;1.92;;;;;;;-2.26;100.00;99911.19;4976846;28;20081;-69
2021/11/23 05:27:00;;;;;;;1.10;1.10;;;;;;;-2.15;100.00;99907.50;4976519;28;20039;-69
2021/11/23 05:29:25;;;;;;;1.38;1.38;;;;;;;-2.10;100.00;99917.09;4977212;28;20081;-73
2021/11/23 05:31:51;;;;;;;1.10;1.10;;;;;;;-2.20;100.00;99919.09;4986288;28;20062;-73
2021/11/23 05:34:16;;;;;;;1.10;1.10;;;;;;;-2.34;99.78;99909.09;4995843;28;20029;-72
2021/11/23 05:36:44;;;;;;;0.88;0.88;;;;;;;-2.31;99.62;99910.06;4994518;28;20113;-73
2021/11/23 05:39:09;;;;;;;2.40;1.00;;;;;;;-2.04;100.00;99908.91;4995641;28;20026;-72
2021/11/23 05:41:34;;;;;;;1.75;1.63;;;;;;;-2.34;100.00;99905.69;4995882;28;20080;-72
2021/11/23 05:44:00;;;;;;;1.33;1.33;;;;;;;-2.26;100.00;99908.66;4952548;28;20396;-73
2021/11/23 05:46:25;;;;;;;0.95;0.95;;;;;;;-2.19;100.00;99905.59;4976251;28;20038;-73
2021/11/23 05:48:52;;;;;;;1.70;1.60;;;;;;;-2.01;100.00;99909.06;4976117;28;20067;-73
2021/11/23 05:51:18;;;;;;;1.20;1.20;;;;;;;-2.14;100.00;99909.25;4976077;28;20033;-72
2021/11/23 05:53:43;;;;;;;1.67;1.58;;;;;;;-2.14;100.00;99904.16;4976303;28;20031;-77
2021/11/23 05:56:09;;;;;;;1.85;1.85;;;;;;;-2.25;100.00;99905.31;4976572;28;20035;-76
2021/11/23 05:58:36;;;;;;;1.80;1.70;;;;;;;-2.39;100.00;99912.22;4976412;28;20057;-73
2021/11/23 06:01:02;;;;;;;1.27;1.27;;;;;;;-2.22;100.00;99910.56;4965213;28;20019;-75
2021/11/23 06:03:28;;;;;;;2.95;2.78;;;;;;;-2.32;99.38;99914.28;4971200;28;20065;-75
2021/11/23 06:05:53;;;;;;;0.98;0.98;;;;;;;-2.35;98.89;99909.91;4975823;28;20117;-75
2021/11/23 06:08:18;;;;;;;1.63;1.63;;;;;;;-2.33;98.89;99913.38;4975974;28;20400;-75
2021/11/23 06:10:44;;;;;;;2.08;1.98;;;;;;;-2.52;98.77;99913.22;4975685;28;20113;-75
2021/11/23 06:13:11;;;;;;;0.75;0.75;;;;;;;-2.48;98.87;99901.56;4975775;28;20030;-75
2021/11/23 06:15:38;;;;;;;1.38;1.38;;;;;;;-1.90;99.17;99912.16;4975586;28;20035;-75
2021/11/23 06:18:03;;;;;;;0.80;0.80;;;;;;;-2.19;97.19;99916.63;4975749;28;20022;-75
2021/11/23 06:20:30;;;;;;;1.08;1.02;;;;;;;-1.93;98.53;99917.09;4975410;28;20031;-75
2021/11/23 06:23:01;;;;;;;1.40;1.30;;;;;;;-2.19;98.25;99920.84;4975732;28;20041;-75
2021/11/23 06:25:27;;;;;;;2.92;2.72;;;;;;;-2.15;98.63;99922.75;4975553;28;20039;-77
2021/11/23 06:27:53;;;;;;;1.17;1.17;;;;;;;-2.28;97.44;99927.97;4975716;28;20394;-75
2021/11/23 06:30:19;;;;;;;0.80;0.80;;;;;;;-2.01;98.64;99926.84;4967621;28;20074;-75
2021/11/23 06:32:45;;;;;;;1.48;1.40;;;;;;;-1.93;98.25;99929.78;4967374;28;20110;-75
2021/11/23 06:35:11;;;;;;;1.00;1.00;;;;;;;-2.22;97.69;99943.53;4975224;28;20475;-75
2021/11/23 06:37:37;;;;;;;2.67;1.70;;;;;;;-1.86;98.46;99940.31;4975647;28;20098;-75
2021/11/23 06:40:06;;;;;;;0.88;0.88;;;;;;;-2.03;96.88;99948.78;4975376;28;20033;-75
2021/11/23 06:42:31;;;;;;;1.20;1.20;;;;;;;-2.17;96.62;99957.34;4975365;28;20027;-75
2021/11/23 06:44:57;;;;;;;1.73;1.63;;;;;;;-1.85;98.55;99962.38;4975284;28;20546;-75
2021/11/23 06:47:22;;;;;;;1.10;1.10;;;;;;;-1.95;99.03;99966.91;4975520;28;20117;-75
2021/11/23 06:49:49;;;;;;;2.22;2.13;;;;;;;-1.93;98.15;99971.28;4974947;28;20089;-75
2021/11/23 06:52:14;;;;;;;1.30;1.30;;;;;;;-1.88;97.76;99974.94;4975189;28;20026;-75
2021/11/23 06:54:40;;;;;;;0.70;0.70;;;;;;;-2.17;98.13;99975.97;4975180;28;20110;-75
2021/11/23 06:57:06;;;;;;;1.05;1.05;;;;;;;-2.30;97.18;99973.59;4974945;28;20035;-75
2021/11/23 06:59:31;;;;;;;1.60;1.50;;;;;;;-2.41;96.79;99990.81;4968191;28;20032;-75
2021/11/23 07:01:56;;;;;;;3.20;1.58;;;;;;;-2.44;97.00;99984.69;4965827;28;20389;-75
2021/11/23 07:04:21;;;;;;;2.15;1.95;;;;;;;-2.54;97.05;99995.13;4974669;28;20077;-75
2021/11/23 07:06:48;;;;;;;2.35;2.15;;;;;;;-2.55;97.76;100001.00;4974778;28;20081;-75
2021/11/23 07:09:15;;;;;;;1.65;1.58;;;;;;;-2.59;97.57;100007.56;4974865;28;20108;-75
2021/11/23 07:11:41;;;;;;;1.23;1.23;;;;;;;-2.58;97.25;100005.09;4974825;28;20045;-75
2021/11/23 07:14:06;;;;;;;2.40;2.22;;;;;;;-2.58;97.37;99999.16;4974808;28;20022;-75
2021/11/23 07:16:33;;;;;;;3.72;2.58;;;;;;;-2.47;97.76;100004.81;4974360;28;20034;-75
2021/11/23 07:18:59;;;;;;;2.78;2.67;;;;;;;-2.13;99.86;99997.28;4974295;28;20554;-75
2021/11/23 07:21:25;;;;;;;1.42;1.42;;;;;;;-2.07;99.46;99997.63;4974740;28;20030;-75
2021/11/23 07:23:50;;;;;;;2.53;2.15;;;;;;;-2.10;98.28;100002.53;4974524;28;20668;-75
2021/11/23 07:26:15;;;;;;;2.00;1.90;;;;;;;-1.72;99.91;100006.19;4973200;28;20039;-75
2021/11/23 07:28:41;;;;;;;2.08;1.98;;;;;;;-1.82;98.04;100005.72;4974351;28;20035;-75
2021/11/23 07:31:06;;;;;;;2.08;1.98;;;;;;;-1.85;97.20;100003.00;4962946;28;20027;-75
2021/11/23 07:33:31;;;;;;;1.85;1.77;;;;;;;-2.12;96.25;100015.19;4968987;28;20027;-75
2021/11/23 07:35:56;;;;;;;1.00;1.00;;;;;;;-2.15;96.51;100014.13;4974333;28;20034;-75
2021/11/23 07:38:22;;;;;;;2.05;1.88;;;;;;;-2.07;97.14;100003.59;4974227;28;20042;-75
2021/11/23 07:40:47;;;;;;;1.02;1.02;;;;;;;-1.86;96.88;100013.09;4954306;28;20049;-75
2021/11/23 07:43:13;;;;;;;1.55;1.45;;;;;;;-1.66;95.74;100014.09;4972548;28;20050;-75
2021/11/23 07:45:39;;;;;;;2.33;2.22;;;;;;;-1.67;95.10;100009.81;4974168;28;20041;-75
2021/11/23 07:48:05;;;;;;;0.75;0.75;;;;;;;-1.43;95.56;100010.19;4974006;28;20023;-75
2021/11/23 07:50:30;;;;;;;1.90;1.80;;;;;;;-1.45;94.65;100014.28;4973906;28;20030;-75
2021/11/23 07:52:56;;;;;;;2.53;2.30;;;;;;;-0.62;93.94;100011.53;4974020;28;20045;-77
2021/11/23 07:55:21;;;;;;;1.30;1.27;;;;;;;1.54;83.01;99999.38;4974127;28;20029;-77
2021/11/23 07:57:46;;;;;;;2.13;2.03;;;;;;;3.71;71.49;99980.16;4974123;28;20018;-77
2021/11/23 08:00:12;;;;;;;3.35;3.05;;;;;;;5.87;62.96;99978.63;4966101;28;20023;-77
2021/11/23 08:02:38;;;;;;;4.43;4.03;;;;;;;7.91;56.39;99980.22;4965713;28;20054;-77
2021/11/23 08:05:03;;;;;;;7.90;4.15;;;;;;;9.48;50.35;99973.06;4973670;28;20480;-77
2021/11/23 08:07:30;;;;;;;6.38;4.28;;;;;;;10.10;48.48;99973.31;4973760;28;20037;-78
2021/11/23 08:09:55;;;;;;;3.75;2.80;;;;;;;10.29;46.92;99980.31;4973524;28;20035;-75
2021/11/23 08:12:21;;;;;;;3.85;3.42;;;;;;;10.36;45.41;99979.47;4973780;28;20029;-75
2021/11/23 08:14:46;;;;;;;3.83;1.98;;;;;;;12.55;41.37;99979.03;4973505;28;20034;-75
2021/11/23 08:17:11;;;;;;;4.32;2.13;;;;;;;12.88;40.37;99977.91;4973355;28;20042;-76
2021/11/23 08:19:37;;;;;;;2.55;2.35;;;;;;;11.96;40.96;99983.66;4973314;28;20085;-75
2021/11/23 08:22:02;;;;;;;2.80;2.25;;;;;;;12.61;40.95;99991.97;4973647;28;20030;-75
2021/11/23 08:24:28;;;;;;;4.63;2.67;;;;;;;14.67;37.58;99980.25;4973585;28;20033;-75
2021/11/23 08:26:56;;;;;;;6.03;1.90;;;;;;;14.20;37.16;99989.56;4973380;28;20042;-75
2021/11/23 08:29:21;;;;;;;3.35;2.60;;;;;;;13.81;38.06;99990.03;4967843;28;20077;-76
2021/11/23 08:31:47;;;;;;;2.53;1.90;;;;;;;14.77;35.96;99989.66;4962922;28;20027;-76
2021/11/23 08:34:12;;;;;;;2.10;1.70;;;;;;;13.96;36.91;99999.41;4973548;28;20022;-76
2021/11/23 08:36:37;;;;;;;2.05;1.85;;;;;;;12.61;37.70;99999.78;4973116;28;20049;-76
2021/11/23 08:39:04;;;;;;;4.50;2.30;;;;;;;13.12;38.34;99993.31;4973161;28;20139;-76
2021/11/23 08:41:30;;;;;;;3.00;2.70;;;;;;;10.60;42.45;100006.31;4973194;28;20023;-75
2021/11/23 08:43:55;;;;;;;1.95;1.70;;;;;;;11.47;42.77;99999.38;4973134;28;20019;-76
2021/11/23 08:46:20;;;;;;;1.95;1.75;;;;;;;11.27;41.67;100001.13;4973034;28;20058;-76
2021/11/23 08:48:46;;;;;;;2.28;1.60;;;;;;;12.60;39.00;100004.09;4973113;28;20031;-76
2021/11/23 08:51:16;;;;;;;2.75;2.20;;;;;;;13.31;39.12;99995.78;4973047;28;20026;-76
2021/11/23 08:53:41;;;;;;;5.45;2.38;;;;;;;14.53;37.58;99991.72;4973199;28;20440;-76
2021/11/23 08:56:08;;;;;;;1.70;1.60;;;;;;;15.37;34.19;99989.50;4976474;28;20067;-76
2021/11/23 08:58:34;;;;;;;3.05;2.13;;;;;;;13.48;37.12;99998.22;4977166;28;20109;-76
2021/11/23 09:01:00;;;;;;;2.20;2.03;;;;;;;15.51;34.84;99984.03;4966216;28;20038;-76
2021/11/23 09:03:25;;;;;;;1.55;1.45;;;;;;;15.96;33.19;99987.53;4972035;28;20027;-76
2021/11/23 09:05:52;;;;;;;1.88;1.77;;;;;;;15.70;34.00;99989.78;4976954;28;20026;-76
2021/11/23 09:08:17;;;;;;;1.20;1.10;;;;;;;14.52;34.89;99987.41;4977018;28;20472;-76
2021/11/23 09:10:43;;;;;;;2.45;1.83;;;;;;;16.27;33.41;99981.66;4976805;28;20041;-76
2021/11/23 09:13:08;;;;;;;2.53;1.90;;;;;;;16.53;32.47;99992.38;4976909;28;20027;-76
2021/11/23 09:15:34;;;;;;;2.40;2.17;;;;;;;16.55;33.61;99992.38;4976487;28;20034;-75
2021/11/23 09:18:01;;;;;;;3.30;1.80;;;;;;;13.26;36.83;99995.84;4976806;28;20029;-75
2021/11/23 09:20:34;;;;;;;1.63;1.52;;;;;;;14.15;36.24;100005.25;4976868;28;20031;-76
2021/11/23 09:23:00;;;;;;;1.98;1.70;;;;;;;16.53;33.20;100000.22;4976871;28;20106;-76
2021/11/23 09:25:26;;;;;;;2.75;1.67;;;;;;;17.12;31.44;99994.53;4976643;28;20484;-76
2021/11/23 09:27:51;;;;;;;3.17;1.70;;;;;;;17.52;30.83;99993.50;4976558;28;20085;-75
2021/11/23 09:30:17;;;;;;;3.67;1.88;;;;;;;17.84;29.97;99990.00;4968864;28;20483;-76
2021/11/23 09:32:43;;;;;;;2.85;1.70;;;;;;;16.58;32.54;100007.97;4968324;28;20038;-76
2021/11/23 09:35:11;;;;;;;1.60;1.10;;;;;;;17.55;30.20;99999.50;4976624;28;20070;-76
2021/11/23 09:37:37;;;;;;;2.42;1.65;;;;;;;18.34;29.58;99998.19;4976463;28;20033;-76
2021/11/23 09:40:04;;;;;;;2.13;1.90;;;;;;;17.58;30.90;100004.66;4976308;28;20034;-76
2021/11/23 09:42:29;;;;;;;2.63;1.70;;;;;;;15.22;32.84;100010.66;4976239;28;20033;-76
2021/11/23 09:44:56;;;;;;;2.65;1.38;;;;;;;16.89;31.95;100002.94;4976242;28;20030;-76
2021/11/23 09:47:24;;;;;;;1.17;1.10;;;;;;;16.97;31.73;100001.00;4976465;28;20097;-76
2021/11/23 09:49:49;;;;;;;3.10;1.92;;;;;;;17.27;32.22;99998.50;4976019;28;20030;-75
2021/11/23 09:52:15;;;;;;;1.83;1.65;;;;;;;17.05;32.04;99990.31;4976288;28;20027;-76
2021/11/23 09:54:40;;;;;;;2.72;1.70;;;;;;;16.92;31.89;99992.38;4975998;28;20455;-77
2021/11/23 09:57:06;;;;;;;3.13;1.75;;;;;;;16.23;32.09;99990.47;4975941;28;20050;-76
2021/11/23 09:59:31;;;;;;;2.45;1.80;;;;;;;15.38;34.82;99993.84;4969198;28;20037;-76
2021/11/23 10:01:59;;;;;;;1.55;1.45;;;;;;;16.87;32.37;99989.88;4967262;28;20034;-77
2021/11/23 10:04:27;;;;;;;2.80;1.70;;;;;;;16.85;31.78;99990.81;4976004;28;20429;-77
2021/11/23 10:06:59;;;;;;;1.65;1.33;;;;;;;17.15;30.42;99984.81;4975563;28;20058;-76
2021/11/23 10:09:39;;;;;;;2.05;1.83;;;;;;;16.77;31.45;99984.91;4975761;28;20058;-76
2021/11/23 10:12:15;;;;;;;2.47;2.00;;;;;;;17.25;31.68;99979.34;4975894;28;20472;-76
2021/11/23 10:15:01;;;;;;;1.50;1.40;;;;;;;17.17;30.93;99980.41;4975887;28;20451;-76
2021/11/23 10:17:27;;;;;;;2.28;1.67;;;;;;;16.59;32.15;99979.19;4975406;28;20035;-76
2021/11/23 10:19:52;;;;;;;3.13;1.48;;;;;;;18.37;29.24;99967.47;4975471;28;20546;-76
2021/11/23 10:22:33;;;;;;;7.00;2.10;;;;;;;17.85;29.64;99970.75;4975619;28;20062;-76
2021/11/23 10:25:01;;;;;;;1.45;1.23;;;;;;;17.39;30.58;99958.88;4975596;28;20034;-76
2021/11/23 10:27:26;;;;;;;2.05;1.90;;;;;;;15.74;32.10;99965.34;4975482;28;20034;-76
2021/11/23 10:29:52;;;;;;;1.40;0.95;;;;;;;16.45;32.62;99971.66;4967762;28;20031;-76
2021/11/23 10:32:17;;;;;;;1.98;1.65;;;;;;;16.04;32.69;99958.59;4967445;28;20019;-76
2021/11/23 10:34:45;;;;;;;1.50;1.40;;;;;;;15.14;33.98;99956.84;4975278;28;20547;-76
2021/11/23 10:37:26;;;;;;;1.67;1.25;;;;;;;14.79;35.29;99956.56;4975389;28;20023;-76
2021/11/23 10:39:52;;;;;;;1.25;1.23;;;;;;;14.62;34.93;99952.47;4975152;28;20030;-76
2021/11/23 10:42:17;;;;;;;1.55;1.45;;;;;;;14.95;35.25;99950.22;4975302;28;20029;-76
2021/11/23 10:44:53;;;;;;;1.92;1.73;;;;;;;15.26;34.29;99941.84;4975217;28;20023;-76
2021/11/23 10:47:19;;;;;;;2.08;1.60;;;;;;;13.51;37.04;99953.94;4975070;28;20606;-76
2021/11/23 10:49:46;;;;;;;1.20;1.13;;;;;;;13.18;37.80;99944.69;4973698;28;20142;-76
2021/11/23 10:52:33;;;;;;;1.55;1.35;;;;;;;13.67;38.07;99942.44;4975137;28;20023;-76
2021/11/23 10:54:59;;;;;;;1.30;1.20;;;;;;;14.57;35.99;99930.81;4975120;28;20442;-75
2021/11/23 10:57:24;;;;;;;4.63;1.98;;;;;;;14.59;34.83;99939.47;4974888;28;20122;-75
2021/11/23 10:59:49;;;;;;;1.70;1.60;;;;;;;14.53;35.27;99944.78;4967232;28;20027;-75
2021/11/23 11:02:15;;;;;;;1.48;1.38;;;;;;;14.40;35.22;99949.28;4966868;28;20386;-76
2021/11/23 11:04:43;;;;;;;1.42;1.30;;;;;;;14.30;34.87;99949.44;4974918;28;20314;-76
2021/11/23 11:07:09;;;;;;;1.77;1.63;;;;;;;13.82;36.55;99938.78;4974826;28;20037;-76
2021/11/23 11:09:35;;;;;;;1.27;1.17;;;;;;;16.13;33.58;99933.13;4974758;28;20026;-76
2021/11/23 11:12:02;;;;;;;1.20;1.10;;;;;;;14.84;33.88;99939.97;4973649;28;20514;-76
2021/11/23 11:14:35;;;;;;;0.90;0.90;;;;;;;14.91;33.44;99928.53;4974739;28;20515;-76
2021/11/23 11:17:03;;;;;;;1.30;1.13;;;;;;;14.26;34.46;99938.19;4973774;28;20506;-76
2021/11/23 11:19:42;;;;;;;0.90;0.80;;;;;;;13.86;35.13;99919.63;4974550;28;20063;-77
2021/11/23 11:22:08;;;;;;;1.15;0.90;;;;;;;14.62;34.08;99923.78;4974580;28;20396;-76
2021/11/23 11:24:42;;;;;;;1.38;1.13;;;;;;;13.56;35.61;99921.75;4974411;28;20027;-76
2021/11/23 11:27:35;;;;;;;1.38;0.85;;;;;;;14.91;34.29;99914.59;4974588;28;20031;-77
2021/11/23 11:30:20;;;;;;;4.00;2.38;;;;;;;17.17;30.50;99904.47;4983388;23;20459;-66
2021/11/23 11:32:47;;;;;;;1.13;0.90;;;;;;;15.44;32.33;99904.94;4965182;28;20503;-66
2021/11/23 11:35:42;;;;;;;0.80;0.80;;;;;;;14.14;32.77;99902.75;4954929;28;20031;-66
2021/11/23 11:38:26;;;;;;;1.33;1.17;;;;;;;16.36;30.12;99903.84;4946836;28;20043;-66
2021/11/23 11:40:53;;;;;;;1.35;0.90;;;;;;;16.16;30.23;99896.47;4954972;28;20420;-66
2021/11/23 11:43:19;;;;;;;0.80;0.80;;;;;;;13.54;34.00;99907.91;4954748;28;20027;-66
2021/11/23 11:45:47;;;;;;;1.10;0.80;;;;;;;12.90;35.11;99902.44;4954785;28;20030;-66
2021/11/23 11:48:22;;;;;;;1.55;1.20;;;;;;;12.77;36.06;99902.59;4954948;28;20404;-66
2021/11/23 11:51:01;;;;;;;0.70;0.70;;;;;;;13.26;34.61;99903.88;4954942;28;20023;-66
2021/11/23 11:53:38;;;;;;;0.63;0.63;;;;;;;12.27;36.45;99910.75;4954674;28;20028;-66
2021/11/23 11:56:04;;;;;;;0.50;0.50;;;;;;;14.26;33.84;99900.84;4954594;28;20061;-66
2021/11/23 11:58:53;;;;;;;0.75;0.75;;;;;;;15.26;32.55;99892.22;4954783;28;20031;-66
2021/11/23 12:01:27;;;;;;;2.53;1.20;;;;;;;15.81;32.62;99898.97;4956587;28;20030;-66
2021/11/23 12:04:01;;;;;;;1.45;1.33;;;;;;;15.67;31.10;99902.75;4972347;28;20467;-66
2021/11/23 12:09:31;;;;;;;1.80;1.65;;;;;;;16.07;32.42;99891.44;4973355;28;20037;-66
2021/11/23 12:12:19;;;;;;;1.25;1.00;;;;;;;12.27;35.46;99898.63;4973617;28;20400;-66
2021/11/23 12:14:55;;;;;;;0.98;0.98;;;;;;;11.88;38.42;99894.53;4973416;28;20029;-66
2021/11/23 12:17:44;;;;;;;0.80;0.80;;;;;;;10.26;41.26;99892.25;4973676;28;20031;-66
2021/11/23 12:20:15;;;;;;;1.02;1.02;;;;;;;8.84;44.09;99900.22;4973200;28;20031;-64
2021/11/23 12:22:43;;;;;;;0.88;0.88;;;;;;;8.35;46.28;99894.66;4973452;28;20034;-64
2021/11/23 12:25:18;;;;;;;0.50;0.50;;;;;;;8.86;45.86;99888.19;4973094;28;20124;-64
2021/11/23 12:27:46;;;;;;;0.80;0.80;;;;;;;8.20;46.27;99899.66;4973777;28;20399;-64
2021/11/23 12:30:14;;;;;;;0.95;0.95;;;;;;;7.93;44.79;99897.69;4965377;28;20150;-65
2021/11/23 12:32:40;;;;;;;0.60;0.60;;;;;;;8.14;45.18;99886.72;4965401;28;20049;-64
2021/11/23 12:35:08;;;;;;;1.40;0.63;;;;;;;7.99;44.34;99879.69;4973284;28;20023;-65
2021/11/23 12:37:37;;;;;;;0.85;0.85;;;;;;;7.44;45.60;99879.91;4973249;28;20026;-65
2021/11/23 12:40:17;;;;;;;0.52;0.52;;;;;;;7.50;47.81;99883.44;4973215;28;20022;-65
2021/11/23 12:42:54;;;;;;;0.50;0.50;;;;;;;7.74;46.37;99883.72;4973383;28;20119;-65
2021/11/23 12:45:25;;;;;;;0.82;0.82;;;;;;;7.29;46.94;99876.28;4973137;28;20031;-65
2021/11/23 12:47:51;;;;;;;1.05;0.75;;;;;;;7.25;45.83;99875.38;4973128;28;20027;-65
2021/11/23 12:50:17;;;;;;;1.13;1.10;;;;;;;7.57;46.80;99865.47;4972899;28;20027;-65
2021/11/23 12:52:44;;;;;;;0.80;0.80;;;;;;;7.65;45.86;99865.56;4973398;28;20029;-65
2021/11/23 12:55:11;;;;;;;0.50;0.50;;;;;;;7.95;45.09;99863.28;4972902;28;20023;-65
2021/11/23 12:57:38;;;;;;;1.20;1.05;;;;;;;6.99;45.65;99859.56;4973110;28;20055;-65
2021/11/23 13:00:06;;;;;;;1.45;1.05;;;;;;;7.13;44.84;99872.63;4965024;28;20022;-65
2021/11/23 13:02:32;;;;;;;0.60;0.60;;;;;;;7.05;46.67;99869.94;4964594;28;20031;-65
2021/11/23 13:05:07;;;;;;;0.50;0.50;;;;;;;7.11;44.58;99867.47;4973014;28;20038;-65
2021/11/23 13:07:39;;;;;;;0.50;0.50;;;;;;;7.09;45.65;99865.72;4971598;28;20396;-65
2021/11/23 13:10:11;;;;;;;0.90;0.90;;;;;;;7.00;45.17;99861.28;4972717;28;20038;-64
2021/11/23 13:12:40;;;;;;;0.60;0.60;;;;;;;7.32;45.77;99858.28;4972868;28;20384;-65
2021/11/23 13:15:07;;;;;;;0.63;0.63;;;;;;;7.15;44.10;99860.63;4972662;28;20023;-65
2021/11/23 13:17:52;;;;;;;9.20;1.25;;;;;;;7.16;45.12;99863.25;4972740;28;20030;-65
2021/11/23 13:20:20;;;;;;;0.65;0.65;;;;;;;7.38;46.32;99859.22;4972865;28;20077;-65
2021/11/23 13:22:50;;;;;;;0.65;0.65;;;;;;;7.38;45.48;99859.22;4972517;28;20150;-65
2021/11/23 13:25:15;;;;;;;;;;;;;;;7.06;44.05;99850.19;4973115;28;20105;-65
2021/11/23 13:27:41;;;;;;;0.52;0.52;;;;;;;7.06;44.39;99850.19;4972559;28;19992;-65
2021/11/23 13:30:33;;;;;;;0.70;0.70;;;;;;;6.83;44.78;99853.34;4964791;28;20186;-68
2021/11/23 13:33:28;;;;;;;0.60;0.60;;;;;;;6.72;44.33;99852.31;4964569;28;20097;-69
2021/11/23 13:36:13;;;;;;;0.50;0.50;;;;;;;7.05;44.20;99856.19;4972745;28;20041;-69
2021/11/23 13:38:49;;;;;;;0.90;0.90;;;;;;;6.78;45.05;99844.69;4972874;28;20038;-70
2021/11/23 13:41:22;;;;;;;0.73;0.73;;;;;;;6.85;44.53;99851.63;4974432;28;20085;-69
2021/11/23 13:43:58;;;;;;;0.98;0.98;;;;;;;6.99;45.17;99848.41;4976284;28;20081;-70
2021/11/23 13:46:36;;;;;;;0.52;0.52;;;;;;;6.76;44.71;99851.50;4976257;28;20026;-64
2021/11/23 13:49:04;;;;;;;2.35;0.70;;;;;;;7.01;44.08;99846.69;4976136;28;20155;-65
2021/11/23 13:51:31;;;;;;;0.85;0.85;;;;;;;6.70;44.53;99844.56;4976263;28;20037;-65
2021/11/23 13:54:12;;;;;;;0.80;0.80;;;;;;;6.73;44.59;99835.16;4976062;28;20023;-64
2021/11/23 13:56:53;;;;;;;0.60;0.60;;;;;;;6.68;45.18;99837.66;4976060;28;20078;-64
2021/11/23 13:59:20;;;;;;;0.75;0.75;;;;;;;6.71;44.68;99840.25;4970872;28;20034;-65
2021/11/23 14:01:57;;;;;;;0.52;0.52;;;;;;;6.63;45.65;99844.47;4965605;28;20035;-64
2021/11/23 14:04:25;;;;;;;0.55;0.55;;;;;;;6.68;45.05;99832.50;4975925;28;20109;-64
2021/11/23 14:07:09;;;;;;;0.60;0.60;;;;;;;6.79;45.22;99840.38;4969682;28;20033;-65
2021/11/23 14:10:04;;;;;;;0.60;0.60;;;;;;;6.71;44.42;99837.69;4956575;28;20110;-64
2021/11/23 14:12:41;;;;;;;0.60;0.60;;;;;;;6.48;44.85;99839.03;4956611;28;20500;-69
2021/11/23 14:15:13;;;;;;;0.65;0.65;;;;;;;6.47;45.11;99839.91;4956485;28;20073;-68
2021/11/23 14:18:19;;;;;;;3.05;0.80;;;;;;;6.46;45.45;99840.75;4956456;28;20502;-69
2021/11/23 14:20:47;;;;;;;0.60;0.60;;;;;;;6.38;45.72;99833.78;4939490;28;20449;-68
2021/11/23 14:23:26;;;;;;;0.80;0.80;;;;;;;6.33;46.06;99843.13;4956393;28;20031;-68
2021/11/23 14:26:18;;;;;;;0.60;0.60;;;;;;;6.18;45.89;99851.44;4956751;28;20027;-68
2021/11/23 14:28:53;;;;;;;0.50;0.50;;;;;;;6.17;45.52;99848.84;4956278;28;20115;-68
2021/11/23 14:31:25;;;;;;;0.65;0.55;;;;;;;6.10;46.23;99841.88;4963778;28;20105;-68
2021/11/23 14:33:51;;;;;;;1.15;1.05;;;;;;;6.12;46.33;99845.34;4972175;28;20034;-69
2021/11/23 14:36:28;;;;;;;0.95;0.95;;;;;;;6.05;46.01;99844.38;4962162;28;20030;-68
2021/11/23 14:38:53;;;;;;;6.50;1.02;;;;;;;6.03;46.19;99846.03;4956414;28;20031;-68
2021/11/23 14:41:19;;;;;;;0.55;0.55;;;;;;;6.04;46.81;99846.91;4956038;28;20034;-68
2021/11/23 14:43:44;;;;;;;1.08;0.80;;;;;;;5.93;46.33;99844.16;4955997;28;20366;-69
2021/11/23 14:46:09;;;;;;;0.55;0.55;;;;;;;5.92;46.65;99845.84;4956235;28;20385;-68
2021/11/23 14:48:35;;;;;;;1.27;1.17;;;;;;;5.88;46.73;99844.03;4956021;28;20035;-68
2021/11/23 14:51:00;;;;;;;0.52;0.52;;;;;;;5.77;47.27;99836.97;4955434;28;20046;-69
2021/11/23 14:53:25;;;;;;;0.75;0.75;;;;;;;5.65;48.72;99842.75;4954823;28;20027;-68
2021/11/23 14:55:51;;;;;;;0.60;0.60;;;;;;;5.60;48.27;99846.94;4955931;28;20428;-68
2021/11/23 14:58:16;;;;;;;0.60;0.60;;;;;;;5.57;48.36;99839.19;4955760;28;20027;-68
2021/11/23 15:00:42;;;;;;;0.68;0.68;;;;;;;5.58;49.15;99840.91;4963298;28;20031;-68
2021/11/23 15:03:07;;;;;;;0.57;0.57;;;;;;;5.51;49.45;99839.03;4967112;28;20033;-68
2021/11/23 15:05:33;;;;;;;0.70;0.70;;;;;;;5.44;50.21;99842.34;4966532;28;20054;-69
2021/11/23 15:07:59;;;;;;;0.60;0.60;;;;;;;5.38;49.59;99843.94;4970057;28;20031;-68
2021/11/23 15:10:24;;;;;;;0.60;0.60;;;;;;;5.33;50.47;99842.13;4955234;28;20369;-69
2021/11/23 15:12:50;;;;;;;2.50;0.90;;;;;;;5.31;50.60;99844.66;4955441;28;20123;-70
2021/11/23 15:15:18;;;;;;;0.65;0.65;;;;;;;5.13;52.40;99846.88;4953546;28;20030;-69
2021/11/23 15:17:45;;;;;;;0.50;0.50;;;;;;;4.99;52.68;99843.13;4963937;28;20026;-69
2021/11/23 15:20:11;;;;;;;0.70;0.70;;;;;;;4.81;54.01;99844.44;4974800;28;20412;-69
2021/11/23 15:22:36;;;;;;;0.95;0.85;;;;;;;4.69;54.55;99844.19;4964940;28;20051;-70
2021/11/23 15:25:03;;;;;;;0.80;0.80;;;;;;;4.67;54.95;99840.69;4974525;28;20041;-69
2021/11/23 15:27:29;;;;;;;0.95;0.95;;;;;;;4.44;56.89;99847.00;4974595;28;20034;-69
2021/11/23 15:29:54;;;;;;;0.57;0.57;;;;;;;4.38;57.47;99843.47;4966459;28;20035;-69
2021/11/23 15:32:20;;;;;;;1.50;1.40;;;;;;;4.22;58.77;99851.63;4966216;28;20388;-66
2021/11/23 15:34:45;;;;;;;1.10;1.10;;;;;;;4.02;59.90;99856.25;4974202;28;20391;-66
2021/11/23 15:37:10;;;;;;;4.47;1.85;;;;;;;3.94;60.73;99851.75;4974364;28;20023;-66
2021/11/23 15:39:36;;;;;;;1.90;1.58;;;;;;;3.83;61.42;99859.16;4965301;28;20077;-66
2021/11/23 15:42:01;;;;;;;0.63;0.63;;;;;;;3.62;62.20;99856.88;4973854;28;20502;-66
2021/11/23 15:44:27;;;;;;;2.55;2.45;;;;;;;3.50;63.35;99861.69;4974085;28;20030;-66
2021/11/23 15:46:52;;;;;;;0.70;0.70;;;;;;;3.33;64.21;99859.50;4974175;28;20034;-66
2021/11/23 15:49:18;;;;;;;0.70;0.70;;;;;;;3.19;65.17;99865.94;4973701;28;20105;-66
2021/11/23 15:51:45;;;;;;;0.82;0.82;;;;;;;3.11;65.73;99867.41;4974021;28;20029;-66
2021/11/23 15:54:12;;;;;;;0.68;0.68;;;;;;;2.98;66.20;99860.19;4974023;28;20100;-66
2021/11/23 15:56:38;;;;;;;0.50;0.50;;;;;;;2.93;66.61;99866.84;4974000;28;20033;-66
2021/11/23 15:59:03;;;;;;;0.60;0.60;;;;;;;2.83;67.93;99856.34;4970810;28;20074;-66
2021/11/23 16:01:29;;;;;;;0.80;0.80;;;;;;;2.69;69.30;99862.72;4962319;28;20023;-66